ADDS METAR Data INFO
IDs: Format: Raw Decoded Include TAF

Data at: 1319 UTC 19 Jul 2018

K7W4 191315Z AUTO 00000KT 10SM CLR 23/17 A3010 RMK AO1 T02270171
K7W4 191255Z AUTO 00000KT 10SM CLR 21/17 A3010 RMK AO1 T02140168
K7W4 191235Z AUTO 00000KT 10SM CLR 21/17 A3009 RMK AO1 T02110166
K7W4 191215Z AUTO 00000KT 10SM SCT075 22/16 A3008 RMK AO1 T02160160
K7W4 191155Z AUTO 00000KT 10SM SCT075 21/16 A3008 RMK AO1 T02110163 10211 20155
K7W4 191135Z AUTO 00000KT 10SM BKN075 20/17 A3008 RMK AO1 T02040166
K7W4 191115Z AUTO 31004KT 10SM OVC075 18/17 A3007 RMK AO1 T01800173
K7W4 191055Z AUTO 31004KT 10SM BKN075 17/16 A3007 RMK AO1 T01730164
K7W4 191035Z AUTO 28006KT 10SM BKN075 16/15 A3006 RMK AO1 T01610153
K7W4 191015Z AUTO 29004KT 10SM BKN075 16/15 A3005 RMK AO1 T01580150
K7W4 190955Z AUTO 00000KT 10SM CLR 16/15 A3005 RMK AO1 T01570150
K7W4 190935Z AUTO 00000KT 10SM CLR 16/15 A3005 RMK AO1 T01600152
K7W4 190915Z AUTO 00000KT 10SM SCT075 16/15 A3004 RMK AO1 T01590151
K7W4 190855Z AUTO 00000KT 10SM SCT075 16/16 A3004 RMK AO1 T01640157
K7W4 190835Z AUTO 00000KT 10SM BKN075 17/16 A3004 RMK AO1 T01700159
K7W4 190815Z AUTO 27005KT 10SM OVC075 17/16 A3004 RMK AO1 T01680160
K7W4 190755Z AUTO 28005KT 10SM BKN075 17/16 A3004 RMK AO1 T01690159
K7W4 190735Z AUTO 28007KT 10SM BKN075 17/16 A3004 RMK AO1 T01730157
K7W4 190715Z AUTO 27004KT 10SM SCT075 18/16 A3004 RMK AO1 T01750156
K7W4 190655Z AUTO 27005KT 10SM BKN075 18/16 A3004 RMK AO1 T01780155
K7W4 190635Z AUTO 27006KT 10SM SCT075 18/16 A3004 RMK AO1 T01750161
K7W4 190615Z AUTO 28007KT 10SM SCT070 18/16 A3004 RMK AO1 T01770160
K7W4 190555Z AUTO 28009KT 10SM OVC070 18/16 A3004 RMK AO1 T01760161 10230 20168
K7W4 190535Z AUTO 27007KT 10SM BKN070 17/16 A3004 RMK AO1 T01730160
K7W4 190515Z AUTO 27008KT 10SM SCT070 17/16 A3003 RMK AO1 T01710155
K7W4 190455Z AUTO 28007KT 10SM SCT070 17/15 A3003 RMK AO1 T01710154 402890170
K7W4 190435Z AUTO 27007KT 10SM SCT070 17/15 A3002 RMK AO1 T01720152
K7W4 190415Z AUTO 27007KT 10SM CLR 18/15 A3002 RMK AO1 T01770150
K7W4 190355Z AUTO 00000KT 10SM CLR 18/15 A3001 RMK AO1 T01800146
K7W4 190335Z AUTO 28007KT 10SM CLR 18/15 A3001 RMK AO1 T01800148
K7W4 190315Z AUTO 28007KT 10SM CLR 18/15 A3001 RMK AO1 T01760151
K7W4 190255Z AUTO 27004KT 10SM CLR 18/15 A3001 RMK AO1 T01780153
K7W4 190235Z AUTO 27007KT 10SM CLR 19/16 A3001 RMK AO1 T01850157
K7W4 190215Z AUTO 27006KT 10SM CLR 19/16 A3000 RMK AO1 T01900155
K7W4 190155Z AUTO 00000KT 10SM CLR 19/15 A3000 RMK AO1 T01930153
K7W4 190135Z AUTO 00000KT 10SM CLR 20/15 A2999 RMK AO1 T01980148
K7W4 190115Z AUTO 00000KT 10SM CLR 20/15 A2999 RMK AO1 T02010150
K7W4 190055Z AUTO 00000KT 10SM CLR 20/15 A2999 RMK AO1 T02030148
K7W4 190035Z AUTO 00000KT 10SM CLR 21/15 A2999 RMK AO1 T02120150
K7W4 190015Z AUTO 00000KT 10SM CLR 22/14 A2998 RMK AO1 T02230144
K7W4 182355Z AUTO 00000KT 10SM CLR 23/14 A2998 RMK AO1 T02340141 10289 20234
K7W4 182335Z AUTO 00000KT 10SM CLR 26/13 A2998 RMK AO1 T02560125
K7W4 182315Z AUTO 00000KT 10SM CLR 27/12 A2997 RMK AO1 T02670121
K7W4 182255Z AUTO 00000KT 10SM CLR 27/12 A2997 RMK AO1 T02700116
K7W4 182235Z AUTO 32004KT 10SM CLR 27/11 A2997 RMK AO1 T02730113
K7W4 182215Z AUTO 31003KT 10SM SCT065 28/12 A2997 RMK AO1 T02760116
K7W4 182155Z AUTO 32004KT 10SM BKN065 28/12 A2997 RMK AO1 T02810122
K7W4 182135Z AUTO 29004KT 10SM SCT065 28/12 A2997 RMK AO1 T02800122
K7W4 182115Z AUTO 00000KT 10SM SCT065 28/12 A2997 RMK AO1 T02770116
K7W4 182055Z AUTO 33004KT 10SM CLR 28/13 A2997 RMK AO1 T02800128
K7W4 182035Z AUTO 32004KT 10SM SCT060 27/12 A2997 RMK AO1 T02740121
K7W4 182015Z AUTO 31005KT 10SM BKN060 29/13 A2997 RMK AO1 T02860126
K7W4 181955Z AUTO 35005KT 10SM SCT060 28/13 A2997 RMK AO1 T02840129
K7W4 181935Z AUTO 32003KT 10SM BKN060 27/14 A2997 RMK AO1 T02740136
K7W4 181915Z AUTO 32003KT 10SM BKN060 28/13 A2998 RMK AO1 T02780126
K7W4 181855Z AUTO 35005KT 10SM CLR 29/12 A2998 RMK AO1 T02850124
K7W4 181835Z AUTO 35003KT 10SM SCT055 28/14 A2998 RMK AO1 T02800135
K7W4 181815Z AUTO 35003KT 10SM CLR 28/13 A2998 RMK AO1 T02750130
K7W4 181755Z AUTO 02003KT 10SM CLR 28/13 A2998 RMK AO1 T02790132 10282 20217
K7W4 181735Z AUTO 31003KT 10SM CLR 27/13 A2999 RMK AO1 T02740131
K7W4 181715Z AUTO 00000KT 10SM CLR 27/14 A2999 RMK AO1 T02710138
K7W4 181655Z AUTO 35004KT 10SM SCT046 27/13 A2999 RMK AO1 T02710131
K7W4 181635Z AUTO 00000KT 10SM BKN046 BKN060 27/14 A2999 RMK AO1 T02740143
K7W4 181615Z AUTO 34005KT 10SM SCT048 SCT060 26/14 A2999 RMK AO1 T02610142
K7W4 181555Z AUTO 35003KT 10SM CLR 26/14 A2999 RMK AO1 T02630143
K7W4 181535Z AUTO 36003KT 10SM CLR 26/15 A3000 RMK AO1 T02620147
K7W4 181515Z AUTO 34004KT 10SM CLR 26/14 A3000 RMK AO1 T02560144
K7W4 181455Z AUTO 30005KT 10SM CLR 25/14 A3000 RMK AO1 T02540144
K7W4 181435Z AUTO 36005KT 10SM CLR 25/15 A3000 RMK AO1 T02500145
K7W4 181415Z AUTO 33007KT 10SM CLR 25/15 A3000 RMK AO1 T02450149
K7W4 181355Z AUTO 33004KT 10SM CLR 24/15 A3000 RMK AO1 T02380149
K7W4 181335Z AUTO 31004KT 10SM CLR 24/15 A2999 RMK AO1 T02350150
K7W4 181315Z AUTO 30007KT 270V350 10SM CLR 23/15 A2999 RMK AO1 T02320151
K7W4 181255Z AUTO 33004KT 10SM CLR 23/15 A2999 RMK AO1 T02280148
K7W4 181235Z AUTO 34003KT 10SM CLR 22/15 A2999 RMK AO1 T02240147
K7W4 181215Z AUTO 34006KT 10SM CLR 22/15 A2998 RMK AO1 T02190147
K7W4 181155Z AUTO 34003KT 10SM CLR 22/14 A2998 RMK AO1 70004 T02160142 10225 20202
K7W4 181135Z AUTO 34006KT 10SM SCT070 21/14 A2997 RMK AO1 T02140143
K7W4 181115Z AUTO 35008KT 10SM CLR 21/14 A2996 RMK AO1 T02100141
K7W4 181055Z AUTO 00000KT 10SM CLR 21/14 A2995 RMK AO1 T02100143
K7W4 181035Z AUTO 35004KT 10SM CLR 21/15 A2994 RMK AO1 T02100145
K7W4 181015Z AUTO 35006KT 10SM CLR 21/15 A2993 RMK AO1 T02140146
K7W4 180955Z AUTO 01003KT 10SM CLR 21/15 A2992 RMK AO1 T02110151
K7W4 180935Z AUTO 35004KT 10SM CLR 22/15 A2992 RMK AO1 T02150153
K7W4 180915Z AUTO 35004KT 10SM CLR 22/16 A2991 RMK AO1 T02160157
K7W4 180855Z AUTO 36004KT 10SM CLR 22/16 A2991 RMK AO1 T02190164
K7W4 180835Z AUTO 34004KT 10SM CLR 22/17 A2991 RMK AO1 T02220166
K7W4 180815Z AUTO 34005KT 10SM CLR 22/17 A2991 RMK AO1 T02230172
K7W4 180755Z AUTO 35004KT 10SM CLR 22/18 A2991 RMK AO1 T02230180
K7W4 180735Z AUTO 34006KT 10SM CLR 22/19 A2991 RMK AO1 T02240186
K7W4 180715Z AUTO 32003KT 10SM CLR 22/19 A2991 RMK AO1 T02210194
K7W4 180655Z AUTO 00000KT 10SM SCT120 22/20 A2991 RMK AO1 T02170203
K7W4 180635Z AUTO 31003KT 10SM CLR 21/20 A2990 RMK AO1 T02060199
K7W4 180615Z AUTO 25003KT 10SM CLR 20/20 A2990 RMK AO1 T02040196
K7W4 180555Z AUTO 27005KT 10SM SCT120 21/20 A2990 RMK AO1 T02060198 10245 20205
K7W4 180535Z AUTO 00000KT 10SM SCT120 21/20 A2990 RMK AO1 T02110203
K7W4 180515Z AUTO 00000KT 10SM SCT120 21/20 A2990 RMK AO1 T02110203
K7W4 180455Z AUTO 29003KT 10SM BKN120 21/21 A2990 RMK AO1 T02120205 403300212
K7W4 180435Z AUTO 28005KT 10SM SCT100 SCT120 21/21 A2990 RMK AO1 T02120205
K7W4 180415Z AUTO 26005KT 10SM SCT046 SCT060 BKN090 22/21 A2990 RMK AO1 T02170210
K7W4 180355Z AUTO 00000KT 10SM SCT039 BKN046 OVC050 22/21 A2991 RMK AO1 T02190211
K7W4 180335Z AUTO 00000KT 10SM SCT035 BKN060 OVC095 22/21 A2991 RMK AO1 T02190211
K7W4 180315Z AUTO 25003KT 10SM SCT060 SCT090 22/21 A2989 RMK AO1 T02180210
K7W4 180255Z AUTO 00000KT 10SM CLR 22/22 A2987 RMK AO1 T02220215
K7W4 180235Z AUTO 00000KT 10SM CLR 22/22 A2987 RMK AO1 T02240216
K7W4 180215Z AUTO 00000KT 10SM CLR 23/22 A2987 RMK AO1 T02250218
K7W4 180155Z AUTO 24004KT 10SM SCT003 23/22 A2987 RMK AO1 T02280220
K7W4 180135Z AUTO 22003KT 10SM CLR 23/22 A2987 RMK AO1 T02310223